Time;durP1;ratioP1;P1;durP2;ratioP2;P2;SDS_P1;SDS_P2;PMS_P1;PMS_P2;Temp;Humidity;BMP_temperature;BMP_pressure;BME280_temperature;BME280_humidity;BME280_pressure;Samples;Min_cycle;Max_cycle;Signal;HPM_P1;HPM_P2
2021/03/18 00:01:39;;;;;;;;;;;;;;;;;;5067227;28;819;-57
2021/03/18 00:04:05;;;;;;;;;;;;;;;;;;5067393;28;1971;-58
2021/03/18 00:06:31;;;;;;;;;;;;;;;;;;5067533;28;879;-57
2021/03/18 00:08:57;;;;;;;;;;;;;;;;;;5068107;28;842;-59
2021/03/18 00:11:22;;;;;;;;;;;;;;;;;;5068341;28;1013;-57
2021/03/18 00:13:48;;;;;;;;;;;;;;;;;;5067993;28;823;-57
2021/03/18 00:16:13;;;;;;;;;;;;;;;;;;5067759;28;808;-57
2021/03/18 00:18:43;;;;;;;;;;;;;;;;;;5067504;28;877;-57
2021/03/18 00:21:09;;;;;;;;;;;;;;;;;;5067664;28;855;-57
2021/03/18 00:23:35;;;;;;;;;;;;;;;;;;5067787;28;881;-57
2021/03/18 00:26:00;;;;;;;;;;;;;;;;;;5067422;28;1965;-58
2021/03/18 00:28:26;;;;;;;;;;;;;;;;;;5068561;28;831;-57
2021/03/18 00:30:51;;;;;;;;;;;;;;;;;;5067943;28;930;-58
2021/03/18 00:33:17;;;;;;;;;;;;;;;;;;5069523;28;854;-58
2021/03/18 00:35:43;;;;;;;;;;;;;;;;;;5066848;28;870;-58
2021/03/18 00:38:09;;;;;;;;;;;;;;;;;;5066978;28;886;-59
2021/03/18 00:40:38;;;;;;;;;;;;;;;;;;5067094;28;871;-59
2021/03/18 00:43:08;;;;;;;;;;;;;;;;;;5066845;28;901;-59
2021/03/18 00:45:34;;;;;;;;;;;;;;;;;;5066736;28;1961;-59
2021/03/18 00:48:00;;;;;;;;;;;;;;;;;;5067471;28;807;-59
2021/03/18 00:50:26;;;;;;;;;;;;;;;;;;5068153;28;811;-57
2021/03/18 00:52:51;;;;;;;;;;;;;;;;;;5067443;28;1196;-57
2021/03/18 00:55:17;;;;;;;;;;;;;;;;;;5067774;28;815;-57
2021/03/18 00:57:42;;;;;;;;;;;;;;;;;;5067067;28;910;-58
2021/03/18 01:00:13;;;;;;;;;;;;;;;;;;5079976;28;907;-57
2021/03/18 01:02:38;;;;;;;;;;;;;;;;;;5086955;28;838;-58
2021/03/18 01:05:06;;;;;;;;;;;;;;;;;;5087153;28;1909;-59
2021/03/18 01:07:32;;;;;;;;;;;;;;;;;;5087404;28;942;-57
2021/03/18 01:09:57;;;;;;;;;;;;;;;;;;5087675;28;846;-58
2021/03/18 01:12:23;;;;;;;;;;;;;;;;;;5084370;28;1687;-57
2021/03/18 01:14:48;;;;;;;;;;;;;;;;;;5071092;28;854;-58
2021/03/18 01:17:14;;;;;;;;;;;;;;;;;;5071476;28;921;-58
2021/03/18 01:19:39;;;;;;;;;;;;;;;;;;5071530;28;925;-58
2021/03/18 01:22:04;;;;;;;;;;;;;;;;;;5070886;28;886;-58
2021/03/18 01:24:30;;;;;;;;;;;;;;;;;;5069933;28;1953;-58
2021/03/18 01:26:55;;;;;;;;;;;;;;;;;;5071855;28;878;-58
2021/03/18 01:29:20;;;;;;;;;;;;;;;;;;5071069;28;893;-57
2021/03/18 01:31:46;;;;;;;;;;;;;;;;;;5070849;28;827;-57
2021/03/18 01:34:12;;;;;;;;;;;;;;;;;;5073511;28;850;-57
2021/03/18 01:36:37;;;;;;;;;;;;;;;;;;5070999;28;886;-57
2021/03/18 01:39:06;;;;;;;;;;;;;;;;;;5070744;28;926;-57
2021/03/18 01:41:32;;;;;;;;;;;;;;;;;;5070825;28;810;-58
2021/03/18 01:43:57;;;;;;;;;;;;;;;;;;5070872;28;902;-57
2021/03/18 01:46:23;;;;;;;;;;;;;;;;;;5071876;28;1968;-57
2021/03/18 01:48:48;;;;;;;;;;;;;;;;;;5070836;28;894;-57
2021/03/18 01:51:19;;;;;;;;;;;;;;;;;;5070799;28;802;-57
2021/03/18 01:53:44;;;;;;;;;;;;;;;;;;5082895;28;1015;-57
2021/03/18 01:56:10;;;;;;;;;;;;;;;;;;5090392;28;920;-57
2021/03/18 01:58:36;;;;;;;;;;;;;;;;;;5090384;28;827;-58
2021/03/18 02:01:06;;;;;;;;;;;;;;;;;;5090590;28;851;-58
2021/03/18 02:03:31;;;;;;;;;;;;;;;;;;5090250;28;870;-57
2021/03/18 02:05:57;;;;;;;;;;;;;;;;;;5090904;28;1905;-58
2021/03/18 02:08:22;;;;;;;;;;;;;;;;;;5090643;28;826;-57
2021/03/18 02:10:48;;;;;;;;;;;;;;;;;;5090817;28;822;-58
2021/03/18 02:13:14;;;;;;;;;;;;;;;;;;5090154;28;886;-58
2021/03/18 02:15:40;;;;;;;;;;;;;;;;;;5090202;28;819;-57
2021/03/18 02:18:08;;;;;;;;;;;;;;;;;;5090657;28;1080;-57
2021/03/18 02:20:52;;;;;;;;;;;;;;;;;;5090545;28;963;-58
2021/03/18 02:23:20;;;;;;;;;;;;;;;;;;5089184;28;924;-57
2021/03/18 02:26:06;;;;;;;;;;;;;;;;;;5089977;28;1963;-59
2021/03/18 02:28:34;;;;;;;;;;;;;;;;;;5068140;28;1132;-57
2021/03/18 02:31:08;;;;;;;;;;;;;;;;;;5090024;28;803;-57
2021/03/18 02:33:52;;;;;;;;;;;;;;;;;;5092721;28;854;-57
2021/03/18 02:36:22;;;;;;;;;;;;;;;;;;5090226;28;850;-58
2021/03/18 02:38:53;;;;;;;;;;;;;;;;;;5090022;28;897;-57
2021/03/18 02:41:20;;;;;;;;;;;;;;;;;;5089877;28;842;-58
2021/03/18 02:43:56;;;;;;;;;;;;;;;;;;5090015;28;909;-57
2021/03/18 02:46:22;;;;;;;;;;;;;;;;;;5089663;28;1894;-58
2021/03/18 02:48:48;;;;;;;;;;;;;;;;;;5089767;28;795;-57
2021/03/18 02:51:15;;;;;;;;;;;;;;;;;;5089397;28;870;-58
2021/03/18 02:53:42;;;;;;;;;;;;;;;;;;5080200;28;1078;-58
2021/03/18 02:56:08;;;;;;;;;;;;;;;;;;5069105;28;910;-58
2021/03/18 02:58:35;;;;;;;;;;;;;;;;;;5069317;28;823;-58
2021/03/18 03:01:02;;;;;;;;;;;;;;;;;;5069503;28;1029;-58
2021/03/18 03:03:27;;;;;;;;;;;;;;;;;;5069382;28;859;-60
2021/03/18 03:05:54;;;;;;;;;;;;;;;;;;5069882;28;1937;-57
2021/03/18 03:08:23;;;;;;;;;;;;;;;;;;5069097;28;811;-58
2021/03/18 03:10:51;;;;;;;;;;;;;;;;;;5068567;28;812;-59
2021/03/18 03:13:17;;;;;;;;;;;;;;;;;;5068882;28;966;-58
2021/03/18 03:15:43;;;;;;;;;;;;;;;;;;5069032;28;901;-58
2021/03/18 03:18:09;;;;;;;;;;;;;;;;;;5068956;28;937;-58
2021/03/18 03:20:35;;;;;;;;;;;;;;;;;;5068590;28;819;-58
2021/03/18 03:23:01;;;;;;;;;;;;;;;;;;5068195;28;921;-58
2021/03/18 03:25:27;;;;;;;;;;;;;;;;;;5069248;28;1969;-59
2021/03/18 03:27:53;;;;;;;;;;;;;;;;;;5069470;28;828;-59
2021/03/18 03:30:19;;;;;;;;;;;;;;;;;;5068492;28;824;-57
2021/03/18 03:32:45;;;;;;;;;;;;;;;;;;5068525;28;796;-59
2021/03/18 03:35:11;;;;;;;;;;;;;;;;;;5071198;28;791;-58
2021/03/18 03:37:38;;;;;;;;;;;;;;;;;;5068326;28;946;-58
2021/03/18 03:40:08;;;;;;;;;;;;;;;;;;5068187;28;850;-58
2021/03/18 03:42:34;;;;;;;;;;;;;;;;;;5068892;28;902;-58
2021/03/18 03:44:59;;;;;;;;;;;;;;;;;;5068521;28;1961;-59
2021/03/18 03:47:26;;;;;;;;;;;;;;;;;;5069175;28;965;-58
2021/03/18 03:49:52;;;;;;;;;;;;;;;;;;5068480;28;843;-59
2021/03/18 03:52:29;;;;;;;;;;;;;;;;;;5068341;28;942;-58
2021/03/18 03:55:07;;;;;;;;;;;;;;;;;;5068156;28;1146;-57
2021/03/18 03:57:44;;;;;;;;;;;;;;;;;;5068719;28;831;-59
2021/03/18 04:00:09;;;;;;;;;;;;;;;;;;5068433;28;906;-58
2021/03/18 04:02:35;;;;;;;;;;;;;;;;;;5067874;28;826;-59
2021/03/18 04:05:01;;;;;;;;;;;;;;;;;;5067493;28;1902;-58
2021/03/18 04:07:28;;;;;;;;;;;;;;;;;;5068908;28;894;-59
2021/03/18 04:09:57;;;;;;;;;;;;;;;;;;5068437;28;811;-59
2021/03/18 04:12:25;;;;;;;;;;;;;;;;;;5068075;28;917;-57
2021/03/18 04:14:56;;;;;;;;;;;;;;;;;;5067673;28;851;-57
2021/03/18 04:17:21;;;;;;;;;;;;;;;;;;5067527;28;800;-57
2021/03/18 04:19:49;;;;;;;;;;;;;;;;;;5067192;28;827;-57
2021/03/18 04:22:15;;;;;;;;;;;;;;;;;;5067568;28;950;-57
2021/03/18 04:24:41;;;;;;;;;;;;;;;;;;5067654;28;2030;-57
2021/03/18 04:27:07;;;;;;;;;;;;;;;;;;5067698;28;831;-57
2021/03/18 04:29:33;;;;;;;;;;;;;;;;;;5067727;28;846;-57
2021/03/18 04:31:58;;;;;;;;;;;;;;;;;;5067465;28;954;-58
2021/03/18 04:34:25;;;;;;;;;;;;;;;;;;5067598;28;854;-57
2021/03/18 04:36:51;;;;;;;;;;;;;;;;;;5069630;28;815;-56
2021/03/18 04:39:16;;;;;;;;;;;;;;;;;;5066931;28;843;-57
2021/03/18 04:41:42;;;;;;;;;;;;;;;;;;5067527;28;870;-58
2021/03/18 04:44:08;;;;;;;;;;;;;;;;;;5067204;28;1952;-57
2021/03/18 04:46:34;;;;;;;;;;;;;;;;;;5066894;28;905;-58
2021/03/18 04:49:00;;;;;;;;;;;;;;;;;;5067637;28;815;-57
2021/03/18 04:51:27;;;;;;;;;;;;;;;;;;5067966;28;950;-57
2021/03/18 04:53:55;;;;;;;;;;;;;;;;;;5067911;28;1133;-57
2021/03/18 04:56:21;;;;;;;;;;;;;;;;;;5067461;28;831;-58
2021/03/18 04:58:47;;;;;;;;;;;;;;;;;;5068498;28;905;-57
2021/03/18 05:01:12;;;;;;;;;;;;;;;;;;5087268;28;830;-57
2021/03/18 05:03:39;;;;;;;;;;;;;;;;;;5086836;28;826;-57
2021/03/18 05:06:07;;;;;;;;;;;;;;;;;;5087351;28;1897;-57
2021/03/18 05:08:33;;;;;;;;;;;;;;;;;;5087080;28;896;-57
2021/03/18 05:10:59;;;;;;;;;;;;;;;;;;5087321;28;877;-58
2021/03/18 05:13:25;;;;;;;;;;;;;;;;;;5088291;28;874;-57
2021/03/18 05:15:51;;;;;;;;;;;;;;;;;;5087270;28;894;-57
2021/03/18 05:18:17;;;;;;;;;;;;;;;;;;5086550;28;826;-57
2021/03/18 05:20:43;;;;;;;;;;;;;;;;;;5087154;28;811;-57
2021/03/18 05:23:10;;;;;;;;;;;;;;;;;;5087552;28;821;-57
2021/03/18 05:25:36;;;;;;;;;;;;;;;;;;5087126;28;1963;-57
2021/03/18 05:28:03;;;;;;;;;;;;;;;;;;5086791;28;858;-58
2021/03/18 05:30:29;;;;;;;;;;;;;;;;;;5087276;28;823;-58
2021/03/18 05:32:55;;;;;;;;;;;;;;;;;;5082895;28;1074;-58
2021/03/18 05:35:20;;;;;;;;;;;;;;;;;;5068343;28;1143;-58
2021/03/18 05:37:46;;;;;;;;;;;;;;;;;;5068950;28;843;-58
2021/03/18 05:40:13;;;;;;;;;;;;;;;;;;5066039;28;902;-58
2021/03/18 05:42:38;;;;;;;;;;;;;;;;;;5066148;28;1236;-57
2021/03/18 05:45:05;;;;;;;;;;;;;;;;;;5066207;28;1882;-58
2021/03/18 05:47:32;;;;;;;;;;;;;;;;;;5066994;28;827;-57
2021/03/18 05:49:57;;;;;;;;;;;;;;;;;;5066976;28;847;-59
2021/03/18 05:52:23;;;;;;;;;;;;;;;;;;5067003;28;882;-58
2021/03/18 05:54:49;;;;;;;;;;;;;;;;;;5084417;28;1152;-58
2021/03/18 05:57:16;;;;;;;;;;;;;;;;;;5086897;28;833;-58
2021/03/18 05:59:45;;;;;;;;;;;;;;;;;;5086522;28;1235;-57
2021/03/18 06:02:11;;;;;;;;;;;;;;;;;;5089978;28;918;-57
2021/03/18 06:04:37;;;;;;;;;;;;;;;;;;5089618;28;1972;-56
2021/03/18 06:07:02;;;;;;;;;;;;;;;;;;5089984;28;843;-56
2021/03/18 06:09:28;;;;;;;;;;;;;;;;;;5089688;28;826;-57
2021/03/18 06:11:53;;;;;;;;;;;;;;;;;;5091378;28;838;-56
2021/03/18 06:14:19;;;;;;;;;;;;;;;;;;5090052;28;823;-57
2021/03/18 06:16:45;;;;;;;;;;;;;;;;;;5090073;28;913;-57
2021/03/18 06:19:11;;;;;;;;;;;;;;;;;;5089436;28;826;-57
2021/03/18 06:21:54;;;;;;;;;;;;;;;;;;5090274;28;836;-57
2021/03/18 06:24:20;;;;;;;;;;;;;;;;;;5089906;28;1890;-57
2021/03/18 06:26:45;;;;;;;;;;;;;;;;;;5089747;28;1165;-57
2021/03/18 06:29:30;;;;;;;;;;;;;;;;;;5089805;28;908;-57
2021/03/18 06:31:57;;;;;;;;;;;;;;;;;;5090488;28;854;-57
2021/03/18 06:34:41;;;;;;;;;;;;;;;;;;5089987;28;731;-57
2021/03/18 06:37:25;;;;;;;;;;;;;;;;;;5090053;28;909;-57
2021/03/18 06:39:51;;;;;;;;;;;;;;;;;;5089492;28;858;-57
2021/03/18 06:42:16;;;;;;;;;;;;;;;;;;5089558;28;868;-58
2021/03/18 06:44:41;;;;;;;;;;;;;;;;;;5089892;28;1890;-57
2021/03/18 06:47:08;;;;;;;;;;;;;;;;;;5089516;28;794;-58
2021/03/18 06:49:34;;;;;;;;;;;;;;;;;;5089803;28;814;-57
2021/03/18 06:52:09;;;;;;;;;;;;;;;;;;5084213;28;1039;-58
2021/03/18 06:54:36;;;;;;;;;;;;;;;;;;5084918;28;1138;-57
2021/03/18 06:57:02;;;;;;;;;;;;;;;;;;5089382;28;917;-58
2021/03/18 06:59:29;;;;;;;;;;;;;;;;;;5089967;28;938;-58
2021/03/18 07:02:20;;;;;;;;;;;;;;;;;;5090216;28;1042;-59
2021/03/18 07:04:47;;;;;;;;;;;;;;;;;;5086978;28;1967;-58
2021/03/18 07:07:13;;;;;;;;;;;;;;;;;;5086042;28;1110;-57
2021/03/18 07:09:39;;;;;;;;;;;;;;;;;;5086262;28;1125;-59
2021/03/18 07:12:08;;;;;;;;;;;;;;;;;;5081203;28;1221;-59
2021/03/18 07:14:35;;;;;;;;;;;;;;;;;;5089103;28;815;-58
2021/03/18 07:17:00;;;;;;;;;;;;;;;;;;5088297;28;835;-58
2021/03/18 07:19:27;;;;;;;;;;;;;;;;;;5089760;28;823;-59
2021/03/18 07:21:53;;;;;;;;;;;;;;;;;;5089242;28;850;-59
2021/03/18 07:24:21;;;;;;;;;;;;;;;;;;5088442;28;1890;-58
2021/03/18 07:26:47;;;;;;;;;;;;;;;;;;5079885;28;1087;-58
2021/03/18 07:29:17;;;;;;;;;;;;;;;;;;5084661;28;1074;-59
2021/03/18 07:31:43;;;;;;;;;;;;;;;;;;5074160;28;1214;-58
2021/03/18 07:34:09;;;;;;;;;;;;;;;;;;5071043;28;1016;-59
2021/03/18 07:36:35;;;;;;;;;;;;;;;;;;5070182;28;1273;-59
2021/03/18 07:39:01;;;;;;;;;;;;;;;;;;5082204;28;1154;-57
2021/03/18 07:41:27;;;;;;;;;;;;;;;;;;5088554;28;1169;-58
2021/03/18 07:43:52;;;;;;;;;;;;;;;;;;5088726;28;1157;-58
2021/03/18 07:46:18;;;;;;;;;;;;;;;;;;5086657;28;1918;-59
2021/03/18 07:48:47;;;;;;;;;;;;;;;;;;5088841;28;893;-57
2021/03/18 07:51:13;;;;;;;;;;;;;;;;;;5082276;28;1106;-58
2021/03/18 07:53:39;;;;;;;;;;;;;;;;;;5067674;28;1153;-57
2021/03/18 07:56:09;;;;;;;;;;;;;;;;;;5068602;28;1158;-58
2021/03/18 07:58:38;;;;;;;;;;;;;;;;;;5068364;28;1154;-57
2021/03/18 08:01:04;;;;;;;;;;;;;;;;;;5070531;28;1114;-58
2021/03/18 08:03:29;;;;;;;;;;;;;;;;;;5065883;28;1309;-58
2021/03/18 08:05:57;;;;;;;;;;;;;;;;;;5082872;28;1996;-58
2021/03/18 08:08:31;;;;;;;;;;;;;;;;;;5088161;28;1217;-59
2021/03/18 08:11:02;;;;;;;;;;;;;;;;;;5089061;28;851;-58
2021/03/18 08:13:32;;;;;;;;;;;;;;;;;;5087946;28;1077;-58
2021/03/18 08:15:58;;;;;;;;;;;;;;;;;;5088653;28;814;-57
2021/03/18 08:18:23;;;;;;;;;;;;;;;;;;5083550;28;1218;-58
2021/03/18 08:20:48;;;;;;;;;;;;;;;;;;5085469;28;1087;-59
2021/03/18 08:23:23;;;;;;;;;;;;;;;;;;5086007;28;893;-58
2021/03/18 08:25:54;;;;;;;;;;;;;;;;;;5086363;28;1963;-60
2021/03/18 08:28:38;;;;;;;;;;;;;;;;;;5086928;28;821;-58
2021/03/18 08:31:06;;;;;;;;;;;;;;;;;;5086234;28;853;-60
2021/03/18 08:33:36;;;;;;;;;;;;;;;;;;5069309;28;1702;-57
2021/03/18 08:36:20;;;;;;;;;;;;;;;;;;5062031;28;823;-57
2021/03/18 08:38:46;;;;;;;;;;;;;;;;;;5066543;28;1383;-57
2021/03/18 08:41:23;;;;;;;;;;;;;;;;;;5067418;28;876;-58
2021/03/18 08:44:07;;;;;;;;;;;;;;;;;;5066993;28;913;-58
2021/03/18 08:46:43;;;;;;;;;;;;;;;;;;5067034;28;1889;-57
2021/03/18 08:49:19;;;;;;;;;;;;;;;;;;5066547;28;1087;-61
2021/03/18 08:51:44;;;;;;;;;;;;;;;;;;5074381;28;1225;-58
2021/03/18 08:54:10;;;;;;;;;;;;;;;;;;5076066;28;1546;-57
2021/03/18 08:56:44;;;;;;;;;;;;;;;;;;5070440;28;1767;-59
2021/03/18 08:59:10;;;;;;;;;;;;;;;;;;5069132;28;1149;-60
2021/03/18 09:01:36;;;;;;;;;;;;;;;;;;5063443;28;1248;-59
2021/03/18 09:04:01;;;;;;;;;;;;;;;;;;5045150;28;839;-57
2021/03/18 09:06:30;;;;;;;;;;;;;;;;;;5061573;28;1977;-58
2021/03/18 09:08:55;;;;;;;;;;;;;;;;;;5058886;28;842;-57
2021/03/18 09:11:22;;;;;;;;;;;;;;;;;;5031862;28;2353;-58
2021/03/18 09:13:47;;;;;;;;;;;;;;;;;;5050561;28;1132;-57
2021/03/18 09:16:18;;;;;;;;;;;;;;;;;;5065618;28;906;-58
2021/03/18 09:18:43;;;;;;;;;;;;;;;;;;5064912;28;946;-58
2021/03/18 09:21:11;;;;;;;;;;;;;;;;;;5050352;28;1515;-57
2021/03/18 09:23:38;;;;;;;;;;;;;;;;;;5038197;28;2011;-58
2021/03/18 09:26:05;;;;;;;;;;;;;;;;;;5045406;28;1898;-57
2021/03/18 09:28:34;;;;;;;;;;;;;;;;;;5043789;28;1697;-57
2021/03/18 09:30:59;;;;;;;;;;;;;;;;;;5041663;28;1469;-58
2021/03/18 09:33:36;;;;;;;;;;;;;;;;;;5045369;28;2162;-57
2021/03/18 09:36:22;;;;;;;;;;;;;;;;;;5041396;28;984;-58
2021/03/18 09:38:56;;;;;;;;;;;;;;;;;;5050205;28;1947;-58
2021/03/18 09:41:24;;;;;;;;;;;;;;;;;;5049777;28;803;-58
2021/03/18 09:43:50;;;;;;;;;;;;;;;;;;5049671;28;867;-57
2021/03/18 09:46:15;;;;;;;;;;;;;;;;;;5050101;28;2396;-57
2021/03/18 09:48:41;;;;;;;;;;;;;;;;;;5058257;28;1233;-57
2021/03/18 09:51:11;;;;;;;;;;;;;;;;;;5069794;28;827;-57
2021/03/18 09:53:37;;;;;;;;;;;;;;;;;;5068714;28;1330;-57
2021/03/18 09:56:13;;;;;;;;;;;;;;;;;;5049007;28;851;-57
2021/03/18 09:58:39;;;;;;;;;;;;;;;;;;5048794;28;906;-57
2021/03/18 10:01:15;;;;;;;;;;;;;;;;;;5069197;28;1276;-58
2021/03/18 10:03:54;;;;;;;;;;;;;;;;;;5070539;28;818;-57
2021/03/18 10:06:35;;;;;;;;;;;;;;;;;;5084806;28;1898;-57
2021/03/18 10:09:19;;;;;;;;;;;;;;;;;;5090347;28;821;-57
2021/03/18 10:12:07;;;;;;;;;;;;;;;;;;5090688;28;854;-57
2021/03/18 10:14:43;;;;;;;;;;;;;;;;;;5084170;28;2138;-57
2021/03/18 10:17:12;;;;;;;;;;;;;;;;;;5089857;28;874;-57
2021/03/18 10:19:45;;;;;;;;;;;;;;;;;;5089821;28;834;-57
2021/03/18 10:22:11;;;;;;;;;;;;;;;;;;5089788;28;909;-59
2021/03/18 10:24:36;;;;;;;;;;;;;;;;;;5089352;28;1902;-58
2021/03/18 10:27:10;;;;;;;;;;;;;;;;;;5089932;28;838;-57
2021/03/18 10:29:36;;;;;;;;;;;;;;;;;;5073539;28;1491;-59
2021/03/18 10:32:12;;;;;;;;;;;;;;;;;;5068808;28;1410;-58
2021/03/18 10:34:37;;;;;;;;;;;;;;;;;;5069129;28;843;-59
2021/03/18 10:37:03;;;;;;;;;;;;;;;;;;5070115;28;799;-59
2021/03/18 10:39:28;;;;;;;;;;;;;;;;;;5069269;28;862;-59
2021/03/18 10:42:00;;;;;;;;;;;;;;;;;;5069830;28;971;-58
2021/03/18 10:44:47;;;;;;;;;;;;;;;;;;5069599;28;1898;-59
2021/03/18 10:47:19;;;;;;;;;;;;;;;;;;5069301;28;819;-59
2021/03/18 10:49:59;;;;;;;;;;;;;;;;;;5069056;28;953;-58
2021/03/18 10:52:24;;;;;;;;;;;;;;;;;;5061901;28;1456;-57
2021/03/18 10:54:53;;;;;;;;;;;;;;;;;;5082113;28;1138;-57
2021/03/18 10:57:19;;;;;;;;;;;;;;;;;;5068622;28;859;-58
2021/03/18 10:59:52;;;;;;;;;;;;;;;;;;5066849;28;827;-57
2021/03/18 11:02:18;;;;;;;;;;;;;;;;;;5046315;28;1395;-59
2021/03/18 11:04:50;;;;;;;;;;;;;;;;;;5050485;28;1979;-58
2021/03/18 11:07:16;;;;;;;;;;;;;;;;;;5067815;28;1059;-57
2021/03/18 11:09:41;;;;;;;;;;;;;;;;;;5068540;28;823;-57
2021/03/18 11:12:07;;;;;;;;;;;;;;;;;;5068693;28;882;-58
2021/03/18 11:14:32;;;;;;;;;;;;;;;;;;5067750;28;909;-58
2021/03/18 11:17:05;;;;;;;;;;;;;;;;;;5069084;28;835;-57
2021/03/18 11:19:30;;;;;;;;;;;;;;;;;;5069114;28;814;-59
2021/03/18 11:22:03;;;;;;;;;;;;;;;;;;5069300;28;823;-58
2021/03/18 11:24:29;;;;;;;;;;;;;;;;;;5067367;28;1965;-59
2021/03/18 11:26:56;;;;;;;;;;;;;;;;;;5047207;28;1372;-57
2021/03/18 11:29:24;;;;;;;;;;;;;;;;;;5064634;28;1087;-57
2021/03/18 11:31:51;;;;;;;;;;;;;;;;;;5054213;28;1177;-60
2021/03/18 11:34:26;;;;;;;;;;;;;;;;;;5051307;28;1291;-59
2021/03/18 11:36:57;;;;;;;;;;;;;;;;;;5054800;28;1222;-58
2021/03/18 11:39:23;;;;;;;;;;;;;;;;;;5049135;28;1182;-59
2021/03/18 11:41:49;;;;;;;;;;;;;;;;;;5065020;28;1366;-60
2021/03/18 11:44:15;;;;;;;;;;;;;;;;;;5062441;28;1099;-58
2021/03/18 11:46:41;;;;;;;;;;;;;;;;;;5063518;28;2023;-59
2021/03/18 11:49:06;;;;;;;;;;;;;;;;;;5055853;28;1159;-58
2021/03/18 11:51:32;;;;;;;;;;;;;;;;;;5054777;28;1114;-58
2021/03/18 11:53:58;;;;;;;;;;;;;;;;;;5056141;28;1161;-58
2021/03/18 11:56:23;;;;;;;;;;;;;;;;;;5048006;28;1186;-59
2021/03/18 11:58:49;;;;;;;;;;;;;;;;;;5054448;28;1253;-60
2021/03/18 12:01:17;;;;;;;;;;;;;;;;;;5080160;28;1249;-57
2021/03/18 12:03:42;;;;;;;;;;;;;;;;;;5075310;28;1222;-59
2021/03/18 12:06:08;;;;;;;;;;;;;;;;;;5079790;28;1897;-59
2021/03/18 12:08:33;;;;;;;;;;;;;;;;;;5076422;28;1150;-60
2021/03/18 12:10:59;;;;;;;;;;;;;;;;;;5071484;28;1399;-58
2021/03/18 12:13:24;;;;;;;;;;;;;;;;;;5083715;28;1057;-57
2021/03/18 12:15:50;;;;;;;;;;;;;;;;;;5066503;28;842;-58
2021/03/18 12:18:15;;;;;;;;;;;;;;;;;;5066421;28;913;-58
2021/03/18 12:20:40;;;;;;;;;;;;;;;;;;5066420;28;914;-57
2021/03/18 12:23:06;;;;;;;;;;;;;;;;;;5066287;28;929;-57
2021/03/18 12:25:31;;;;;;;;;;;;;;;;;;5065947;28;1890;-57
2021/03/18 12:27:56;;;;;;;;;;;;;;;;;;5066788;28;822;-58
2021/03/18 12:30:22;;;;;;;;;;;;;;;;;;5066140;28;724;-57
2021/03/18 12:32:48;;;;;;;;;;;;;;;;;;5064533;28;1771;-59
2021/03/18 12:35:16;;;;;;;;;;;;;;;;;;5056961;28;2038;-60
2021/03/18 12:37:41;;;;;;;;;;;;;;;;;;5061908;28;1698;-57
2021/03/18 12:40:07;;;;;;;;;;;;;;;;;;5061511;28;1967;-59
2021/03/18 12:42:33;;;;;;;;;;;;;;;;;;5065092;28;1947;-56
2021/03/18 12:44:59;;;;;;;;;;;;;;;;;;5076746;28;1926;-58
2021/03/18 12:47:25;;;;;;;;;;;;;;;;;;5086626;28;1237;-57
2021/03/18 12:49:50;;;;;;;;;;;;;;;;;;5081871;28;1435;-60
2021/03/18 12:52:16;;;;;;;;;;;;;;;;;;5081355;28;1206;-57
2021/03/18 12:54:42;;;;;;;;;;;;;;;;;;5084656;28;1113;-58
2021/03/18 12:57:07;;;;;;;;;;;;;;;;;;5067885;28;1219;-58
2021/03/18 12:59:32;;;;;;;;;;;;;;;;;;5066789;28;1197;-59
2021/03/18 13:01:58;;;;;;;;;;;;;;;;;;5066996;28;1169;-59
2021/03/18 13:04:23;;;;;;;;;;;;;;;;;;5062620;28;1150;-58
2021/03/18 13:06:52;;;;;;;;;;;;;;;;;;5067388;28;1971;-58
2021/03/18 13:09:17;;;;;;;;;;;;;;;;;;5044527;28;1245;-60
2021/03/18 13:11:43;;;;;;;;;;;;;;;;;;5068263;28;1209;-59
2021/03/18 13:14:08;;;;;;;;;;;;;;;;;;5071171;28;835;-57
2021/03/18 13:16:34;;;;;;;;;;;;;;;;;;5072028;28;827;-58
2021/03/18 13:18:59;;;;;;;;;;;;;;;;;;5072033;28;844;-58
2021/03/18 13:21:25;;;;;;;;;;;;;;;;;;5073453;28;811;-58
2021/03/18 13:23:50;;;;;;;;;;;;;;;;;;5073360;28;823;-58
2021/03/18 13:26:16;;;;;;;;;;;;;;;;;;5065192;28;1952;-57
2021/03/18 13:28:42;;;;;;;;;;;;;;;;;;5052481;28;871;-57
2021/03/18 13:31:07;;;;;;;;;;;;;;;;;;5052400;28;832;-58
2021/03/18 13:33:33;;;;;;;;;;;;;;;;;;5052406;28;1380;-58
2021/03/18 13:35:58;;;;;;;;;;;;;;;;;;5053067;28;804;-57
2021/03/18 13:38:24;;;;;;;;;;;;;;;;;;5053388;28;874;-59
2021/03/18 13:40:50;;;;;;;;;;;;;;;;;;5053774;28;843;-57
2021/03/18 13:43:16;;;;;;;;;;;;;;;;;;5053224;28;1633;-58
2021/03/18 13:45:42;;;;;;;;;;;;;;;;;;5053343;28;1882;-58
2021/03/18 13:48:09;;;;;;;;;;;;;;;;;;5053927;28;811;-57
2021/03/18 13:50:35;;;;;;;;;;;;;;;;;;5053362;28;867;-58
2021/03/18 13:53:00;;;;;;;;;;;;;;;;;;5056854;28;1161;-59
2021/03/18 13:55:26;;;;;;;;;;;;;;;;;;5074806;28;839;-58
2021/03/18 13:57:52;;;;;;;;;;;;;;;;;;5073766;28;842;-59
2021/03/18 14:00:18;;;;;;;;;;;;;;;;;;5086709;28;959;-58
2021/03/18 14:02:43;;;;;;;;;;;;;;;;;;5091218;28;1292;-58
2021/03/18 14:05:09;;;;;;;;;;;;;;;;;;5073883;28;1886;-59
2021/03/18 14:07:34;;;;;;;;;;;;;;;;;;5073287;28;838;-59
2021/03/18 14:10:00;;;;;;;;;;;;;;;;;;5073279;28;827;-59
2021/03/18 14:12:26;;;;;;;;;;;;;;;;;;5074067;28;905;-59
2021/03/18 14:14:51;;;;;;;;;;;;;;;;;;5075743;28;1193;-59
2021/03/18 14:17:16;;;;;;;;;;;;;;;;;;5073180;28;1085;-59
2021/03/18 14:19:42;;;;;;;;;;;;;;;;;;5069898;28;843;-59
2021/03/18 14:22:07;;;;;;;;;;;;;;;;;;5070175;28;901;-60
2021/03/18 14:24:33;;;;;;;;;;;;;;;;;;5069311;28;1926;-58
2021/03/18 14:26:59;;;;;;;;;;;;;;;;;;5070115;28;1348;-58
2021/03/18 14:29:24;;;;;;;;;;;;;;;;;;5070936;28;910;-57
2021/03/18 14:31:49;;;;;;;;;;;;;;;;;;5069855;28;836;-57
2021/03/18 14:34:15;;;;;;;;;;;;;;;;;;5069748;28;897;-57
2021/03/18 14:36:40;;;;;;;;;;;;;;;;;;5069703;28;966;-58
2021/03/18 14:39:06;;;;;;;;;;;;;;;;;;5070212;28;799;-57
2021/03/18 14:41:31;;;;;;;;;;;;;;;;;;5069823;28;875;-58
2021/03/18 14:43:57;;;;;;;;;;;;;;;;;;5070170;28;866;-57
2021/03/18 14:46:22;;;;;;;;;;;;;;;;;;5069279;28;1889;-59
2021/03/18 14:48:48;;;;;;;;;;;;;;;;;;5051634;28;1513;-57
2021/03/18 14:51:14;;;;;;;;;;;;;;;;;;5050644;28;803;-57
2021/03/18 14:53:39;;;;;;;;;;;;;;;;;;5077439;28;1142;-58
2021/03/18 14:56:06;;;;;;;;;;;;;;;;;;5066421;28;1572;-59
2021/03/18 14:58:31;;;;;;;;;;;;;;;;;;5080307;28;1425;-59
2021/03/18 15:00:57;;;;;;;;;;;;;;;;;;5069110;28;1364;-57
2021/03/18 15:03:22;;;;;;;;;;;;;;;;;;5060878;28;1702;-57
2021/03/18 15:05:48;;;;;;;;;;;;;;;;;;5057381;28;1905;-57
2021/03/18 15:08:14;;;;;;;;;;;;;;;;;;5068466;28;1052;-58
2021/03/18 15:10:40;;;;;;;;;;;;;;;;;;5068626;28;899;-58
2021/03/18 15:13:06;;;;;;;;;;;;;;;;;;5050837;28;1623;-58
2021/03/18 15:15:31;;;;;;;;;;;;;;;;;;5048174;28;836;-59
2021/03/18 15:17:57;;;;;;;;;;;;;;;;;;5049729;28;891;-58
2021/03/18 15:20:32;;;;;;;;;;;;;;;;;;5048860;28;815;-57
2021/03/18 15:22:57;;;;;;;;;;;;;;;;;;5063763;28;1175;-59
2021/03/18 15:25:23;;;;;;;;;;;;;;;;;;5053980;28;1968;-57
2021/03/18 15:27:48;;;;;;;;;;;;;;;;;;5068028;28;1163;-59
2021/03/18 15:30:17;;;;;;;;;;;;;;;;;;5048237;28;1690;-58
2021/03/18 15:32:43;;;;;;;;;;;;;;;;;;5047819;28;832;-58
2021/03/18 15:35:09;;;;;;;;;;;;;;;;;;5048169;28;855;-58
2021/03/18 15:37:34;;;;;;;;;;;;;;;;;;5065269;28;1133;-59
2021/03/18 15:40:00;;;;;;;;;;;;;;;;;;5068198;28;1060;-59
2021/03/18 15:42:26;;;;;;;;;;;;;;;;;;5068947;28;962;-58
2021/03/18 15:44:51;;;;;;;;;;;;;;;;;;5068340;28;1918;-57
2021/03/18 15:47:16;;;;;;;;;;;;;;;;;;5067028;28;1103;-57
2021/03/18 15:49:42;;;;;;;;;;;;;;;;;;5067068;28;1167;-58
2021/03/18 15:52:07;;;;;;;;;;;;;;;;;;5067480;28;850;-57
2021/03/18 15:54:33;;;;;;;;;;;;;;;;;;5068061;28;1164;-57
2021/03/18 15:56:58;;;;;;;;;;;;;;;;;;5049700;28;1206;-59
2021/03/18 15:59:23;;;;;;;;;;;;;;;;;;5053630;28;886;-58
2021/03/18 16:01:49;;;;;;;;;;;;;;;;;;5068208;28;846;-58
2021/03/18 16:04:14;;;;;;;;;;;;;;;;;;5067668;28;933;-59
2021/03/18 16:06:40;;;;;;;;;;;;;;;;;;5067509;28;1893;-59
2021/03/18 16:09:06;;;;;;;;;;;;;;;;;;5068298;28;889;-58
2021/03/18 16:11:31;;;;;;;;;;;;;;;;;;5069724;28;1180;-58
2021/03/18 16:13:56;;;;;;;;;;;;;;;;;;5070708;28;1229;-59
2021/03/18 16:16:22;;;;;;;;;;;;;;;;;;5075185;28;1150;-57
2021/03/18 16:18:47;;;;;;;;;;;;;;;;;;5068386;28;871;-58
2021/03/18 16:21:12;;;;;;;;;;;;;;;;;;5067088;28;795;-59
2021/03/18 16:23:38;;;;;;;;;;;;;;;;;;5066786;28;851;-59
2021/03/18 16:26:03;;;;;;;;;;;;;;;;;;5067125;28;1955;-59
2021/03/18 16:28:29;;;;;;;;;;;;;;;;;;5077214;28;1222;-59
2021/03/18 16:30:54;;;;;;;;;;;;;;;;;;5079058;28;1063;-57
2021/03/18 16:33:21;;;;;;;;;;;;;;;;;;5075422;28;1167;-58
2021/03/18 16:35:52;;;;;;;;;;;;;;;;;;5067623;28;1166;-59
2021/03/18 16:38:17;;;;;;;;;;;;;;;;;;5071354;28;1233;-58
2021/03/18 16:40:43;;;;;;;;;;;;;;;;;;5066859;28;1528;-59
2021/03/18 16:43:08;;;;;;;;;;;;;;;;;;5074815;28;1169;-59
2021/03/18 16:45:34;;;;;;;;;;;;;;;;;;5066840;28;1979;-59
2021/03/18 16:48:01;;;;;;;;;;;;;;;;;;5066584;28;882;-60
2021/03/18 16:50:28;;;;;;;;;;;;;;;;;;5067710;28;835;-59
2021/03/18 16:52:54;;;;;;;;;;;;;;;;;;5069052;28;1169;-57
2021/03/18 16:55:19;;;;;;;;;;;;;;;;;;5082537;28;803;-58
2021/03/18 16:57:45;;;;;;;;;;;;;;;;;;5066005;28;969;-58
2021/03/18 17:00:12;;;;;;;;;;;;;;;;;;5067898;28;1090;-57
2021/03/18 17:02:38;;;;;;;;;;;;;;;;;;5065922;28;1274;-57
2021/03/18 17:05:04;;;;;;;;;;;;;;;;;;5066363;28;1897;-57
2021/03/18 17:07:29;;;;;;;;;;;;;;;;;;5067053;28;1172;-60
2021/03/18 17:09:55;;;;;;;;;;;;;;;;;;5029118;28;827;-57
2021/03/18 17:12:20;;;;;;;;;;;;;;;;;;5061910;28;1167;-57
2021/03/18 17:14:45;;;;;;;;;;;;;;;;;;5064909;28;1130;-57